Terminal Aerodrome Forecast
Issued by NWS Tallahassee, FL

Home | Current Version | Previous Version | Text Only | Print | Product List | Glossary On
Versions: 1 2 3 4 5 6 7 8 9 10 11 12 13 14 15 16 17 18 19
436
FTUS42 KTAE 250520
TAFTLH
TAF
KTLH 250520Z 2506/2606 24003KT P6SM SCT005
     FM250700 25003KT 2SM BR BKN004
     FM251400 29009KT P6SM BKN015
     FM251600 31010G16KT P6SM BKN035
     FM251900 31010G16KT P6SM SCT040
     FM260000 30007KT P6SM SKC=

USA.gov is the U.S. government's official web portal to all federal, state and local government web resources and services.